Time;durP1;ratioP1;P1;durP2;ratioP2;P2;SDS_P1;SDS_P2;PMS_P1;PMS_P2;Temp;Humidity;BMP_temperature;BMP_pressure;BME280_temperature;BME280_humidity;BME280_pressure;Samples;Min_cycle;Max_cycle;Signal;HPM_P1;HPM_P2
2023/01/04 00:01:01;;;;;;;19.33;7.38;;;;;;;7.24;100.00;97627.22;5062538;28;20087;-40
2023/01/04 00:03:30;;;;;;;12.50;7.20;;;;;;;7.29;100.00;97628.59;5054119;28;20477;-39
2023/01/04 00:06:02;;;;;;;15.43;6.85;;;;;;;7.21;100.00;97622.16;5064377;28;20153;-45
2023/01/04 00:08:31;;;;;;;14.52;6.93;;;;;;;7.16;100.00;97625.09;5057487;28;20497;-39
2023/01/04 00:11:01;;;;;;;13.07;6.10;;;;;;;7.39;100.00;97618.38;5064039;28;20087;-43
2023/01/04 00:13:30;;;;;;;15.60;5.95;;;;;;;7.33;100.00;97617.00;5061043;28;20080;-41
2023/01/04 00:15:58;;;;;;;12.75;6.20;;;;;;;7.12;100.00;97613.94;5058883;28;20962;-48
2023/01/04 00:18:35;;;;;;;21.95;6.60;;;;;;;7.22;100.00;97618.59;5056662;28;20096;-39
2023/01/04 00:21:09;;;;;;;20.13;5.90;;;;;;;7.16;100.00;97618.97;5056140;28;20081;-49
2023/01/04 00:23:38;;;;;;;11.63;6.22;;;;;;;7.25;100.00;97611.38;5059040;28;20079;-42
2023/01/04 00:26:08;;;;;;;15.63;5.88;;;;;;;7.51;100.00;97612.38;5061336;28;20081;-40
2023/01/04 00:28:37;;;;;;;12.88;6.40;;;;;;;7.61;100.00;97602.13;5056550;28;20088;-43
2023/01/04 00:31:06;;;;;;;19.15;7.80;;;;;;;7.28;100.00;97608.56;5055616;28;20091;-44
2023/01/04 00:33:35;;;;;;;44.15;11.88;;;;;;;7.04;100.00;97600.44;5061016;28;20083;-43
2023/01/04 00:36:05;;;;;;;45.75;14.57;;;;;;;7.31;100.00;97613.63;5051794;28;20084;-48
2023/01/04 00:38:35;;;;;;;24.33;8.48;;;;;;;6.98;100.00;97597.34;5058384;28;20090;-40
2023/01/04 00:41:04;;;;;;;17.00;8.05;;;;;;;7.01;100.00;97597.16;5063512;28;20533;-40
2023/01/04 00:43:33;;;;;;;18.95;7.60;;;;;;;7.14;100.00;97595.47;5054990;28;20076;-44
2023/01/04 00:46:01;;;;;;;26.70;7.53;;;;;;;7.10;100.00;97596.59;5060964;28;20080;-43
2023/01/04 00:48:30;;;;;;;15.38;7.40;;;;;;;7.09;100.00;97601.00;5061238;28;20084;-42
2023/01/04 00:50:59;;;;;;;20.05;7.82;;;;;;;7.20;100.00;97594.25;5060084;28;20112;-39
2023/01/04 00:53:27;;;;;;;23.13;7.82;;;;;;;7.02;100.00;97598.84;5056670;28;20099;-45
2023/01/04 00:56:00;;;;;;;19.88;8.68;;;;;;;7.01;100.00;97590.13;5056170;28;20076;-42
2023/01/04 00:58:29;;;;;;;16.35;8.38;;;;;;;7.00;100.00;97588.47;5059793;28;20095;-40
2023/01/04 01:00:57;;;;;;;17.63;8.20;;;;;;;7.10;100.00;97579.09;5062170;28;20091;-41
2023/01/04 01:03:25;;;;;;;23.65;9.02;;;;;;;6.95;100.00;97572.19;5050688;28;20084;-48
2023/01/04 01:05:54;;;;;;;21.33;8.23;;;;;;;6.55;100.00;97571.13;5052103;28;20084;-44
2023/01/04 01:08:25;;;;;;;16.80;7.32;;;;;;;6.58;100.00;97571.78;5049533;28;20080;-43
2023/01/04 01:10:54;;;;;;;20.08;7.72;;;;;;;6.77;100.00;97584.59;5052736;28;20548;-40
2023/01/04 01:13:23;;;;;;;14.45;7.25;;;;;;;6.87;100.00;97585.72;5054665;28;20104;-43
2023/01/04 01:15:52;;;;;;;12.80;7.47;;;;;;;7.02;100.00;97583.09;5055210;28;20082;-45
2023/01/04 01:18:20;;;;;;;14.85;7.30;;;;;;;6.91;100.00;97578.53;5061230;28;20092;-43
2023/01/04 01:20:48;;;;;;;13.93;6.82;;;;;;;6.70;100.00;97579.84;5054411;28;20087;-39
2023/01/04 01:23:17;;;;;;;12.63;6.07;;;;;;;6.63;100.00;97576.75;5047058;28;20085;-40
2023/01/04 01:25:45;;;;;;;9.65;6.22;;;;;;;6.38;100.00;97593.94;5056485;28;20104;-42
2023/01/04 01:28:13;;;;;;;12.68;6.13;;;;;;;6.28;100.00;97589.34;5054808;28;20123;-39
2023/01/04 01:30:43;;;;;;;10.00;5.80;;;;;;;6.13;100.00;97589.31;5052682;28;20087;-41
2023/01/04 01:33:12;;;;;;;11.20;7.53;;;;;;;6.28;100.00;97590.19;5057167;28;20489;-40
2023/01/04 01:35:40;;;;;;;11.15;6.40;;;;;;;6.37;100.00;97602.75;5058296;28;20085;-42
2023/01/04 01:38:08;;;;;;;11.07;7.15;;;;;;;6.41;100.00;97596.38;5058508;28;20084;-45
2023/01/04 01:40:41;;;;;;;10.45;7.80;;;;;;;6.45;100.00;97602.28;5060241;28;20586;-41
2023/01/04 01:43:16;;;;;;;11.23;7.40;;;;;;;6.56;100.00;97597.25;5057552;28;20072;-46
2023/01/04 01:45:47;;;;;;;14.25;7.90;;;;;;;6.60;100.00;97606.59;5065272;28;20107;-44
2023/01/04 01:48:18;;;;;;;11.13;7.10;;;;;;;6.76;100.00;97603.91;5062235;28;20084;-43
2023/01/04 01:50:49;;;;;;;18.23;7.53;;;;;;;6.85;100.00;97611.22;5059195;28;20076;-43
2023/01/04 01:53:18;;;;;;;11.65;7.05;;;;;;;6.75;100.00;97604.00;5055434;28;20635;-44
2023/01/04 01:55:49;;;;;;;14.50;7.13;;;;;;;7.02;100.00;97609.31;5061207;28;20131;-40
2023/01/04 01:58:22;;;;;;;17.83;7.38;;;;;;;6.86;100.00;97615.53;5062226;28;20068;-39
2023/01/04 02:00:51;;;;;;;11.20;6.95;;;;;;;6.90;100.00;97609.16;5055925;28;20081;-46
2023/01/04 02:03:22;;;;;;;11.87;6.47;;;;;;;6.89;100.00;97604.00;5060668;28;20088;-45
2023/01/04 02:05:53;;;;;;;9.57;5.78;;;;;;;6.45;100.00;97614.53;5053364;28;20450;-43
2023/01/04 02:08:23;;;;;;;14.77;6.80;;;;;;;6.33;100.00;97611.72;5056193;28;20085;-43
2023/01/04 02:10:57;;;;;;;14.68;7.28;;;;;;;6.12;100.00;97610.31;5059924;28;20037;-52
2023/01/04 02:14:25;;;;;;;16.08;7.35;;;;;;;6.59;100.00;97601.47;5059902;28;20081;-43
2023/01/04 02:16:24;;;;;;;14.45;8.18;;;;;;;6.77;100.00;97610.00;5055313;28;20096;-45
2023/01/04 02:18:56;;;;;;;22.33;8.25;;;;;;;6.71;100.00;97608.59;5054914;28;20465;-46
2023/01/04 02:21:34;;;;;;;15.88;8.38;;;;;;;6.85;100.00;97607.78;5064984;28;20079;-40
2023/01/04 02:24:26;;;;;;;15.43;7.38;;;;;;;6.90;100.00;97596.03;5062384;28;20081;-46
2023/01/04 02:27:22;;;;;;;34.40;9.38;;;;;;;6.55;100.00;97590.31;5058113;28;20449;-40
2023/01/04 02:30:34;;;;;;;27.33;8.35;;;;;;;6.64;100.00;97586.28;5057160;28;20091;-42
2023/01/04 02:33:13;;;;;;;25.95;8.43;;;;;;;6.44;100.00;97590.13;5062369;28;20089;-39
2023/01/04 02:35:47;;;;;;;23.63;7.53;;;;;;;6.90;100.00;97579.47;5053358;28;20082;-39
2023/01/04 02:38:22;;;;;;;26.98;7.43;;;;;;;7.05;100.00;97577.66;5057944;28;20099;-42
2023/01/04 02:40:57;;;;;;;28.80;9.50;;;;;;;6.82;100.00;97579.09;5061145;28;20084;-42
2023/01/04 02:46:17;;;;;;;36.47;9.57;;;;;;;7.12;100.00;97573.72;5058279;28;20076;-40
2023/01/04 02:51:35;;;;;;;33.53;8.85;;;;;;;7.31;100.00;97571.66;5058016;28;20095;-41
2023/01/04 02:54:06;;;;;;;25.00;8.18;;;;;;;7.32;100.00;97568.06;5060737;28;20084;-49
2023/01/04 02:56:48;;;;;;;32.55;8.70;;;;;;;7.46;100.00;97559.31;5059853;28;20095;-46
2023/01/04 02:59:38;;;;;;;35.20;8.73;;;;;;;7.53;100.00;97557.16;5053354;28;20084;-45
2023/01/04 03:08:05;;;;;;;17.73;8.15;;;;;;;7.63;100.00;97531.16;5058976;28;20084;-44
2023/01/04 03:10:37;;;;;;;19.42;8.70;;;;;;;7.50;100.00;97536.34;5056869;28;20071;-40
2023/01/04 03:13:09;;;;;;;16.95;8.25;;;;;;;7.76;100.00;97540.75;5058075;28;20084;-46
2023/01/04 03:15:39;;;;;;;15.18;8.68;;;;;;;7.97;100.00;97533.25;5054954;28;20086;-51
2023/01/04 03:18:13;;;;;;;13.02;8.57;;;;;;;7.67;100.00;97541.34;5060151;28;20084;-44
2023/01/04 03:20:44;;;;;;;13.95;7.82;;;;;;;8.00;100.00;97540.06;5051975;28;20037;-41
2023/01/04 03:37:17;;;;;;;13.35;8.25;;;;;;;8.36;100.00;97533.28;5056119;28;20107;-47
2023/01/04 03:48:30;;;;;;;12.18;7.55;;;;;;;8.03;100.00;97506.56;5050649;28;20080;-39
2023/01/04 03:51:05;;;;;;;11.77;7.35;;;;;;;7.93;100.00;97499.41;5059959;28;20083;-40
2023/01/04 03:53:38;;;;;;;14.27;8.95;;;;;;;7.88;100.00;97502.34;5057821;28;20075;-44
2023/01/04 03:56:08;;;;;;;12.63;8.80;;;;;;;7.66;100.00;97502.06;5057608;28;20076;-41
2023/01/04 03:58:36;;;;;;;14.75;9.68;;;;;;;7.67;100.00;97494.09;5060392;28;20087;-42
2023/01/04 04:01:06;;;;;;;14.45;9.05;;;;;;;7.59;100.00;97491.13;5061069;28;20087;-42
2023/01/04 04:09:07;;;;;;;13.82;9.70;;;;;;;6.96;100.00;97478.63;5051411;28;20457;-42
2023/01/04 04:11:36;;;;;;;14.85;9.98;;;;;;;6.81;100.00;97478.66;5054389;28;20556;-49
2023/01/04 04:14:04;;;;;;;17.05;10.68;;;;;;;6.65;100.00;97485.78;5054153;28;20080;-45
2023/01/04 04:16:32;;;;;;;15.30;10.18;;;;;;;6.58;100.00;97487.94;5056988;28;20478;-45
2023/01/04 04:19:01;;;;;;;13.30;9.25;;;;;;;6.79;100.00;97479.66;5051644;28;20190;-47
2023/01/04 04:21:36;;;;;;;17.45;10.27;;;;;;;6.93;100.00;97481.41;5062066;28;20064;-49
2023/01/04 04:24:05;;;;;;;12.90;9.10;;;;;;;6.98;100.00;97481.97;5052731;28;20076;-44
2023/01/04 04:26:34;;;;;;;14.35;9.43;;;;;;;6.99;100.00;97481.88;5054899;28;20064;-43
2023/01/04 04:29:03;;;;;;;14.00;9.45;;;;;;;6.87;100.00;97478.22;5055859;28;20077;-50
2023/01/04 04:31:31;;;;;;;14.55;9.27;;;;;;;6.78;100.00;97472.72;5054475;28;20084;-42
2023/01/04 04:33:59;;;;;;;17.05;10.35;;;;;;;6.73;100.00;97474.81;5058617;28;20118;-42
2023/01/04 04:36:28;;;;;;;15.57;9.80;;;;;;;6.80;100.00;97474.31;5050544;28;20146;-41
2023/01/04 04:38:56;;;;;;;14.30;9.25;;;;;;;6.92;100.00;97470.09;5049382;28;20107;-43
2023/01/04 04:41:40;;;;;;;16.70;10.52;;;;;;;6.83;100.00;97463.63;5055749;28;20106;-47
2023/01/04 04:44:12;;;;;;;15.15;9.63;;;;;;;6.75;100.00;97463.28;5059617;28;20080;-49
2023/01/04 04:46:40;;;;;;;18.38;10.27;;;;;;;6.63;100.00;97466.66;5055435;28;20080;-41
2023/01/04 04:49:09;;;;;;;16.95;10.82;;;;;;;6.53;100.00;97469.00;5054348;28;20087;-42
2023/01/04 04:51:38;;;;;;;18.92;10.70;;;;;;;6.70;100.00;97454.03;5056761;28;20088;-45
2023/01/04 04:54:06;;;;;;;18.50;10.60;;;;;;;6.72;100.00;97458.25;5054063;28;20071;-42
2023/01/04 04:56:36;;;;;;;17.08;10.80;;;;;;;6.93;100.00;97450.78;5052283;28;20075;-43
2023/01/04 04:59:05;;;;;;;17.75;10.63;;;;;;;7.03;100.00;97448.44;5058874;28;20080;-45
2023/01/04 05:01:35;;;;;;;17.77;9.95;;;;;;;7.09;100.00;97445.44;5049347;28;20088;-41
2023/01/04 05:04:04;;;;;;;22.77;10.88;;;;;;;7.16;100.00;97443.22;5047063;28;20084;-48
2023/01/04 05:06:32;;;;;;;16.98;9.55;;;;;;;7.23;100.00;97447.16;5052814;28;20482;-50
2023/01/04 05:09:01;;;;;;;16.10;9.38;;;;;;;7.23;100.00;97448.00;5059974;28;20088;-45
2023/01/04 05:14:15;;;;;;;16.13;10.10;;;;;;;7.05;100.00;97457.03;5066083;28;20522;-44
2023/01/04 05:16:44;;;;;;;18.23;10.30;;;;;;;6.64;100.00;97461.34;5058935;28;20528;-41
2023/01/04 05:19:13;;;;;;;20.02;10.60;;;;;;;6.56;100.00;97458.34;5059528;28;20095;-42
2023/01/04 05:21:41;;;;;;;20.08;10.05;;;;;;;7.03;100.00;97446.66;5054525;28;20088;-48
2023/01/04 05:24:11;;;;;;;29.55;10.07;;;;;;;7.11;100.00;97454.84;5065515;28;20634;-44
2023/01/04 05:26:40;;;;;;;46.22;10.30;;;;;;;7.10;100.00;97454.97;5054172;28;20085;-44
2023/01/04 05:30:49;;;;;;;61.95;10.82;;;;;;;7.31;100.00;97460.59;5052134;28;20525;-38
2023/01/04 05:31:57;;;;;;;19.77;9.10;;;;;;;7.42;100.00;97458.13;5052324;28;20133;-42
2023/01/04 05:34:26;;;;;;;77.57;10.90;;;;;;;7.46;100.00;97469.25;5053115;28;20069;-41
2023/01/04 05:36:54;;;;;;;60.00;9.77;;;;;;;7.53;100.00;97463.50;5071281;28;20107;-41
2023/01/04 05:39:22;;;;;;;20.00;5.95;;;;;;;7.35;100.00;97476.03;5058734;28;20099;-41
2023/01/04 05:44:36;;;;;;;117.60;10.40;;;;;;;7.29;100.00;97480.84;5052618;28;20576;-39
2023/01/04 05:47:06;;;;;;;73.30;9.98;;;;;;;7.04;100.00;97481.56;5064759;28;20091;-42
2023/01/04 05:49:42;;;;;;;79.38;10.55;;;;;;;7.07;100.00;97484.84;5061292;28;20079;-43
2023/01/04 05:52:10;;;;;;;38.17;9.57;;;;;;;6.77;100.00;97489.41;5057090;28;20084;-46
2023/01/04 05:54:38;;;;;;;21.92;10.05;;;;;;;6.97;100.00;97483.75;5057304;28;20080;-51
2023/01/04 05:57:07;;;;;;;14.85;8.68;;;;;;;7.16;100.00;97477.31;5058108;28;20095;-44
2023/01/04 05:59:35;;;;;;;14.00;9.30;;;;;;;7.28;100.00;97481.78;5061514;28;20110;-42
2023/01/04 06:02:16;;;;;;;17.05;9.30;;;;;;;7.32;100.00;97472.78;5055513;28;20483;-45
2023/01/04 06:04:44;;;;;;;16.50;9.50;;;;;;;7.38;100.00;97475.84;5057714;28;20099;-42
2023/01/04 06:07:13;;;;;;;13.38;8.85;;;;;;;7.42;100.00;97470.41;5057287;28;20068;-41
2023/01/04 06:09:42;;;;;;;14.93;8.57;;;;;;;7.32;100.00;97472.78;5061014;28;20071;-48
2023/01/04 06:12:10;;;;;;;15.63;9.15;;;;;;;7.40;100.00;97470.50;5053942;28;20103;-42
2023/01/04 06:14:39;;;;;;;14.10;8.23;;;;;;;7.28;100.00;97479.16;5056278;28;20567;-40
2023/01/04 06:17:08;;;;;;;15.10;8.77;;;;;;;7.42;100.00;97473.84;5054182;28;20110;-46
2023/01/04 06:19:37;;;;;;;14.93;8.43;;;;;;;7.46;100.00;97485.00;5063675;28;20102;-41
2023/01/04 06:22:07;;;;;;;14.68;8.57;;;;;;;7.42;100.00;97476.47;5063275;28;20079;-44
2023/01/04 06:24:36;;;;;;;15.23;8.60;;;;;;;7.41;100.00;97471.34;5055618;28;20084;-47
2023/01/04 06:27:04;;;;;;;12.88;8.07;;;;;;;7.16;100.00;97479.94;5059672;28;20076;-43
2023/01/04 06:29:32;;;;;;;14.80;8.45;;;;;;;7.59;100.00;97484.09;5057414;28;20489;-42
2023/01/04 06:32:01;;;;;;;15.65;8.85;;;;;;;7.43;100.00;97488.66;5063314;28;20087;-43
2023/01/04 06:34:29;;;;;;;15.35;9.25;;;;;;;7.84;100.00;97479.84;5063681;28;20088;-45
2023/01/04 06:37:00;;;;;;;18.15;9.95;;;;;;;7.23;100.00;97483.88;5054187;28;20081;-47
2023/01/04 06:39:28;;;;;;;20.17;12.53;;;;;;;6.51;100.00;97477.94;5056843;28;20676;-42
2023/01/04 06:41:56;;;;;;;22.05;12.68;;;;;;;6.47;100.00;97472.03;5057630;28;20155;-48
2023/01/04 06:44:33;;;;;;;19.27;12.35;;;;;;;7.37;100.00;97463.66;5055333;28;20092;-44
2023/01/04 06:47:01;;;;;;;18.50;12.18;;;;;;;6.82;100.00;97454.09;5058819;28;20080;-43
2023/01/04 06:49:29;;;;;;;15.18;9.63;;;;;;;6.80;100.00;97450.72;5062223;28;20099;-41
2023/01/04 06:51:58;;;;;;;15.52;9.35;;;;;;;6.73;100.00;97457.28;5066628;28;20085;-43
2023/01/04 06:54:28;;;;;;;15.50;9.23;;;;;;;6.90;100.00;97457.06;5050581;28;20524;-40
2023/01/04 06:56:56;;;;;;;;;;;;;;;7.13;100.00;97446.91;5053241;28;20477;-42
2023/01/04 06:59:25;;;;;;;13.10;7.70;;;;;;;7.12;100.00;97446.06;5061051;28;19986;-47
2023/01/04 07:01:53;;;;;;;11.77;7.55;;;;;;;7.22;100.00;97443.66;5057305;28;20485;-44
2023/01/04 07:04:22;;;;;;;11.57;7.32;;;;;;;7.25;100.00;97442.63;5050524;28;20107;-44
2023/01/04 07:06:50;;;;;;;11.40;7.30;;;;;;;7.34;100.00;97434.16;5065549;28;20083;-42
2023/01/04 07:09:19;;;;;;;16.30;7.28;;;;;;;7.38;100.00;97439.09;5054269;28;20085;-47
2023/01/04 07:11:48;;;;;;;10.45;6.32;;;;;;;7.44;100.00;97437.88;5059456;28;20111;-43
2023/01/04 07:14:17;;;;;;;11.77;6.67;;;;;;;7.48;100.00;97441.13;5056726;28;20088;-40
2023/01/04 07:16:45;;;;;;;11.40;6.57;;;;;;;7.38;100.00;97440.91;5055611;28;20085;-40
2023/01/04 07:19:14;;;;;;;10.30;6.57;;;;;;;7.46;100.00;97432.50;5058346;28;20057;-42
2023/01/04 07:21:42;;;;;;;10.20;5.65;;;;;;;7.46;100.00;97427.25;5049390;28;20552;-48
2023/01/04 07:24:11;;;;;;;12.77;6.43;;;;;;;7.57;100.00;97422.13;5054802;28;20516;-46
2023/01/04 07:26:39;;;;;;;11.07;5.82;;;;;;;7.70;100.00;97427.41;5056014;28;20080;-53
2023/01/04 07:29:15;;;;;;;10.80;6.20;;;;;;;7.69;100.00;97426.56;5066988;28;20087;-38
2023/01/04 07:31:45;;;;;;;8.43;4.97;;;;;;;7.76;100.00;97435.72;5053824;28;20089;-41
2023/01/04 07:34:14;;;;;;;7.22;5.28;;;;;;;7.79;100.00;97434.69;5054551;28;20528;-42
2023/01/04 07:36:43;;;;;;;8.02;5.00;;;;;;;7.84;100.00;97436.06;5055643;28;20111;-46
2023/01/04 07:39:11;;;;;;;7.90;4.97;;;;;;;7.92;100.00;97435.53;5056168;28;20651;-44
2023/01/04 07:41:40;;;;;;;7.00;3.95;;;;;;;8.01;100.00;97429.63;5061213;28;20092;-46
2023/01/04 07:44:11;;;;;;;7.50;4.68;;;;;;;8.00;100.00;97435.84;5056880;28;20080;-43
2023/01/04 07:46:39;;;;;;;13.25;8.05;;;;;;;8.09;100.00;97431.75;5055898;28;20094;-45
2023/01/04 07:49:11;;;;;;;32.83;18.88;;;;;;;8.18;100.00;97419.75;5057895;28;20064;-46
2023/01/04 07:51:45;;;;;;;9.35;6.28;;;;;;;8.30;100.00;97414.50;5055576;28;20095;-43
2023/01/04 07:54:14;;;;;;;6.05;4.00;;;;;;;8.43;100.00;97408.41;5055869;28;20084;-40
2023/01/04 07:56:42;;;;;;;8.35;5.53;;;;;;;8.32;100.00;97394.19;5055976;28;20075;-42
2023/01/04 07:59:13;;;;;;;8.88;6.05;;;;;;;8.63;100.00;97394.69;5056521;28;20072;-41
2023/01/04 08:01:41;;;;;;;7.50;4.78;;;;;;;8.76;100.00;97398.13;5055845;28;20072;-47
2023/01/04 08:04:12;;;;;;;7.70;4.63;;;;;;;8.88;100.00;97395.56;5056599;28;20067;-46
2023/01/04 08:06:41;;;;;;;6.05;3.58;;;;;;;9.07;100.00;97398.53;5053919;28;20624;-48
2023/01/04 08:09:11;;;;;;;5.80;3.58;;;;;;;9.24;100.00;97392.03;5057089;28;20087;-42
2023/01/04 08:11:39;;;;;;;7.70;3.28;;;;;;;9.24;100.00;97395.50;5056673;28;20470;-43
2023/01/04 08:14:08;;;;;;;5.78;3.25;;;;;;;9.41;100.00;97393.41;5051976;28;20543;-43
2023/01/04 08:16:39;;;;;;;4.10;2.78;;;;;;;9.59;100.00;97386.78;5056215;28;20093;-44
2023/01/04 08:19:07;;;;;;;;;;;;;;;9.78;100.00;97385.41;5053462;28;20081;-46
2023/01/04 08:21:36;;;;;;;4.43;2.90;;;;;;;9.64;100.00;97387.28;5056225;28;19966;-47
2023/01/04 08:24:05;;;;;;;4.63;3.03;;;;;;;9.67;100.00;97391.44;5052766;28;20080;-39
2023/01/04 08:26:33;;;;;;;6.30;3.03;;;;;;;10.08;100.00;97384.81;5060489;28;20076;-45
2023/01/04 08:29:02;;;;;;;6.68;3.25;;;;;;;9.65;100.00;97385.47;5055570;28;20607;-43
2023/01/04 08:31:32;;;;;;;4.57;2.90;;;;;;;9.87;100.00;97388.13;5057416;28;20081;-40
2023/01/04 08:34:04;;;;;;;3.60;2.67;;;;;;;10.29;100.00;97382.34;5048604;28;20091;-44
2023/01/04 08:36:33;;;;;;;4.97;3.10;;;;;;;10.14;100.00;97379.06;5048642;28;20088;-46
2023/01/04 08:39:04;;;;;;;4.30;2.85;;;;;;;9.91;100.00;97380.84;5055012;28;20079;-48
2023/01/04 08:41:49;;;;;;;4.95;2.88;;;;;;;10.38;100.00;97387.72;5061547;28;20481;-44
2023/01/04 08:44:34;;;;;;;4.20;2.80;;;;;;;10.37;100.00;97387.88;5048065;28;20077;-42
2023/01/04 08:47:03;;;;;;;3.92;2.80;;;;;;;10.49;100.00;97388.69;5057312;28;20087;-47
2023/01/04 08:49:33;;;;;;;5.22;3.00;;;;;;;10.87;100.00;97382.97;5051565;28;20080;-40
2023/01/04 08:52:01;;;;;;;6.47;3.70;;;;;;;11.04;100.00;97382.47;5049950;28;20084;-40
2023/01/04 08:54:29;;;;;;;4.32;3.20;;;;;;;11.39;100.00;97373.47;5058188;28;20088;-42
2023/01/04 08:56:57;;;;;;;4.78;3.38;;;;;;;11.38;100.00;97372.59;5051999;28;20476;-41
2023/01/04 08:59:26;;;;;;;5.88;3.45;;;;;;;11.52;100.00;97367.97;5048895;28;20307;-44
2023/01/04 09:01:54;;;;;;;4.35;2.70;;;;;;;11.62;100.00;97364.44;5049367;28;20548;-41
2023/01/04 09:04:33;;;;;;;4.82;3.45;;;;;;;11.61;100.00;97364.59;5056464;28;20088;-47
2023/01/04 09:07:01;;;;;;;4.03;2.97;;;;;;;11.64;100.00;97359.88;5061061;28;20087;-43
2023/01/04 09:09:30;;;;;;;3.88;2.97;;;;;;;11.58;100.00;97367.47;5051613;28;20099;-45
2023/01/04 09:11:59;;;;;;;4.32;3.10;;;;;;;11.81;100.00;97362.91;5061037;28;20492;-38
2023/01/04 09:14:27;;;;;;;5.03;3.25;;;;;;;12.16;100.00;97346.69;5050870;28;20687;-43
2023/01/04 09:16:56;;;;;;;5.40;3.53;;;;;;;12.48;100.00;97346.53;5057470;28;20091;-45
2023/01/04 09:19:24;;;;;;;6.03;3.25;;;;;;;12.65;100.00;97346.84;5057923;28;20084;-43
2023/01/04 09:21:54;;;;;;;5.18;3.47;;;;;;;12.58;100.00;97343.91;5059400;28;20107;-42
2023/01/04 09:24:22;;;;;;;5.35;3.33;;;;;;;13.02;100.00;97342.59;5054660;28;20080;-43
2023/01/04 09:26:51;;;;;;;4.75;3.42;;;;;;;13.00;100.00;97347.19;5053748;28;20072;-40
2023/01/04 09:29:19;;;;;;;3.72;2.33;;;;;;;12.85;100.00;97353.03;5059084;28;20084;-41
2023/01/04 09:31:48;;;;;;;4.97;2.70;;;;;;;12.51;100.00;97346.25;5050418;28;20087;-40
2023/01/04 09:34:16;;;;;;;3.58;2.42;;;;;;;12.63;100.00;97340.84;5060146;28;20072;-49
2023/01/04 09:36:46;;;;;;;3.30;2.05;;;;;;;12.48;100.00;97335.94;5052652;28;20087;-42
2023/01/04 09:39:16;;;;;;;3.35;2.00;;;;;;;12.58;100.00;97334.16;5056446;28;20404;-39
2023/01/04 09:41:56;;;;;;;3.15;2.00;;;;;;;12.18;100.00;97328.91;5050701;28;20088;-49
2023/01/04 09:44:33;;;;;;;3.20;1.98;;;;;;;12.10;100.00;97339.28;5049864;28;20144;-39
2023/01/04 09:47:28;;;;;;;3.25;2.22;;;;;;;12.59;100.00;97340.28;5048264;28;20076;-44
2023/01/04 09:50:00;;;;;;;3.42;1.65;;;;;;;12.58;100.00;97335.97;5050346;28;20084;-43
2023/01/04 09:52:39;;;;;;;2.78;1.90;;;;;;;12.67;100.00;97336.97;5056416;28;20072;-42
2023/01/04 09:55:16;;;;;;;3.25;1.70;;;;;;;13.00;100.00;97335.75;5052206;28;20048;-49
2023/01/04 09:58:08;;;;;;;2.40;1.70;;;;;;;13.23;100.00;97323.94;5061188;28;20471;-42
2023/01/04 10:00:40;;;;;;;3.03;1.80;;;;;;;12.97;100.00;97333.38;5059868;28;20080;-39
2023/01/04 10:03:14;;;;;;;2.88;1.60;;;;;;;13.44;100.00;97330.91;5054535;28;20091;-40
2023/01/04 10:05:42;;;;;;;2.83;1.77;;;;;;;13.41;100.00;97318.78;5057608;28;20095;-43
2023/01/04 10:08:15;;;;;;;3.00;1.60;;;;;;;13.59;100.00;97326.00;5051430;28;20084;-40
2023/01/04 10:10:49;;;;;;;2.53;1.60;;;;;;;13.21;100.00;97319.75;5061876;28;20083;-42
2023/01/04 10:13:33;;;;;;;2.67;1.40;;;;;;;13.71;100.00;97309.81;5057674;28;20080;-40
2023/01/04 10:16:10;;;;;;;2.28;1.67;;;;;;;13.75;100.00;97307.72;5054935;28;20119;-41
2023/01/04 10:18:47;;;;;;;2.80;1.70;;;;;;;13.94;100.00;97297.06;5061533;28;20089;-44
2023/01/04 10:21:38;;;;;;;1.88;1.35;;;;;;;13.76;100.00;97296.97;5053325;28;20087;-41
2023/01/04 10:24:18;;;;;;;2.38;1.55;;;;;;;14.19;100.00;97284.09;5063995;28;20080;-45
2023/01/04 10:26:50;;;;;;;2.33;1.35;;;;;;;14.15;100.00;97280.09;5051846;28;20084;-42
2023/01/04 10:29:38;;;;;;;2.15;1.08;;;;;;;14.34;100.00;97273.84;5051127;28;20080;-48
2023/01/04 10:32:15;;;;;;;2.13;1.15;;;;;;;13.83;100.00;97278.66;5055747;28;20088;-39
2023/01/04 10:34:45;;;;;;;2.55;1.40;;;;;;;13.81;100.00;97267.38;5058024;28;20472;-44
2023/01/04 10:37:15;;;;;;;3.17;1.20;;;;;;;14.05;100.00;97258.06;5055413;28;20084;-44
2023/01/04 10:39:44;;;;;;;2.63;0.95;;;;;;;14.00;100.00;97250.53;5056400;28;20090;-45
2023/01/04 10:42:19;;;;;;;1.73;1.10;;;;;;;14.32;100.00;97251.94;5055608;28;20088;-42
2023/01/04 10:44:57;;;;;;;1.75;0.98;;;;;;;13.77;100.00;97240.31;5050906;28;20084;-44
2023/01/04 10:47:36;;;;;;;0.90;0.65;;;;;;;13.53;100.00;97230.22;5055993;28;20513;-43
2023/01/04 10:50:09;;;;;;;3.35;1.23;;;;;;;13.69;100.00;97237.53;5055670;28;20084;-45
2023/01/04 10:52:41;;;;;;;1.05;0.75;;;;;;;13.65;100.00;97240.63;5052075;28;20071;-41
2023/01/04 10:55:14;;;;;;;3.08;1.40;;;;;;;13.65;100.00;97227.38;5054552;28;20092;-42
2023/01/04 10:57:48;;;;;;;3.08;1.00;;;;;;;13.67;100.00;97223.63;5050965;28;20095;-42
2023/01/04 11:00:20;;;;;;;1.55;1.05;;;;;;;13.75;100.00;97209.63;5055017;28;20072;-46
2023/01/04 11:02:53;;;;;;;1.52;1.10;;;;;;;14.28;100.00;97208.94;5054131;28;20456;-43
2023/01/04 11:05:24;;;;;;;1.20;0.60;;;;;;;14.09;100.00;97211.69;5057624;28;20461;-40
2023/01/04 11:07:56;;;;;;;1.42;0.98;;;;;;;14.25;100.00;97195.97;5054339;28;20075;-43
2023/01/04 11:10:28;;;;;;;2.10;1.00;;;;;;;14.09;100.00;97193.13;5063582;28;20068;-40
2023/01/04 11:12:58;;;;;;;2.10;1.15;;;;;;;14.07;100.00;97195.91;5053459;28;20083;-48
2023/01/04 11:15:26;;;;;;;2.23;1.00;;;;;;;14.06;100.00;97202.22;5058486;28;20091;-45
2023/01/04 11:17:55;;;;;;;3.17;1.10;;;;;;;14.52;100.00;97192.47;5060480;28;20494;-50
2023/01/04 11:20:23;;;;;;;1.73;1.05;;;;;;;14.05;100.00;97200.56;5060197;28;20575;-44
2023/01/04 11:22:58;;;;;;;2.00;1.10;;;;;;;14.24;100.00;97199.59;5054910;28;20060;-41
2023/01/04 11:25:28;;;;;;;3.08;1.10;;;;;;;14.27;100.00;97196.66;5052766;28;20477;-43
2023/01/04 11:28:12;;;;;;;1.23;0.88;;;;;;;14.65;100.00;97200.88;5064764;28;20076;-44
2023/01/04 11:30:50;;;;;;;2.15;0.80;;;;;;;14.20;100.00;97209.66;5058035;28;20079;-42
2023/01/04 11:33:20;;;;;;;1.63;0.73;;;;;;;14.23;100.00;97195.28;5049978;28;20064;-42
2023/01/04 11:35:50;;;;;;;1.67;0.93;;;;;;;14.30;100.00;97198.16;5052446;28;20081;-40
2023/01/04 11:38:20;;;;;;;1.67;0.88;;;;;;;14.74;100.00;97193.81;5051417;28;20068;-45
2023/01/04 11:41:08;;;;;;;0.65;0.50;;;;;;;14.67;100.00;97190.94;5054661;28;20095;-41
2023/01/04 11:43:39;;;;;;;0.80;0.60;;;;;;;14.32;100.00;97197.03;5049764;28;20075;-46
2023/01/04 11:46:23;;;;;;;2.97;0.80;;;;;;;14.94;100.00;97189.19;5049531;28;20072;-46
2023/01/04 11:48:52;;;;;;;1.55;0.50;;;;;;;14.29;100.00;97192.03;5053018;28;20087;-41
2023/01/04 11:51:35;;;;;;;0.88;0.50;;;;;;;14.29;100.00;97176.13;5056681;28;20076;-44
2023/01/04 11:54:05;;;;;;;2.55;0.95;;;;;;;15.10;98.35;97159.25;5054962;28;20071;-43
2023/01/04 11:56:34;;;;;;;0.68;0.63;;;;;;;14.95;90.08;97161.63;5061843;28;20040;-43
2023/01/04 11:59:13;;;;;;;1.67;0.63;;;;;;;14.98;87.85;97165.81;5055446;28;20069;-49
2023/01/04 12:01:52;;;;;;;1.15;0.70;;;;;;;15.02;88.77;97154.72;5051708;28;20064;-43
2023/01/04 12:04:22;;;;;;;0.98;0.50;;;;;;;14.65;90.61;97154.91;5063819;28;20079;-45
2023/01/04 12:06:53;;;;;;;2.22;0.60;;;;;;;14.86;88.49;97147.44;5054884;28;20090;-47
2023/01/04 12:09:21;;;;;;;;;;;;;;;14.87;83.79;97138.50;5065139;28;20076;-45
2023/01/04 12:11:51;;;;;;;0.88;0.57;;;;;;;15.43;77.55;97125.72;5064792;28;19971;-43
2023/01/04 12:14:23;;;;;;;1.95;0.95;;;;;;;14.54;75.44;97133.91;5051733;28;20108;-42
2023/01/04 12:16:57;;;;;;;1.35;0.50;;;;;;;15.02;78.59;97145.91;5065152;28;20075;-44
2023/01/04 12:19:26;;;;;;;0.95;0.30;;;;;;;14.45;78.88;97144.44;5056494;28;20067;-44
2023/01/04 12:21:57;;;;;;;0.98;0.45;;;;;;;14.79;75.55;97137.59;5056983;28;20083;-43
2023/01/04 12:24:28;;;;;;;1.50;0.50;;;;;;;15.09;78.30;97134.50;5052122;28;20087;-43
2023/01/04 12:26:57;;;;;;;2.10;0.70;;;;;;;15.02;78.36;97136.13;5054112;28;20071;-50
2023/01/04 12:30:00;;;;;;;1.02;0.50;;;;;;;15.03;73.47;97127.16;5051177;28;20045;-43
2023/01/04 12:32:45;;;;;;;1.15;0.50;;;;;;;14.64;79.09;97126.72;5055151;28;20053;-43